Impacts METAR Board
IDs:

KPHX - Phoenix/Sky Harbor, AZ, US

Updated at: 0800 UTC 16 Oct 2018
Potential Impact None Slight Moderate High
Time 15/20Z 15/21Z 15/22Z 15/23Z 16/00Z 16/01Z 16/02Z 16/03Z 16/04Z 16/05Z 16/06Z 16/07Z 16/08Z
Temp74 76 77 78 77 76 76 73 71 70 68 65 62
Dewpt38 39 39 41 39 39 36 40 39 41 44 48 49
Altim29.95 29.93 29.91 29.90 29.89 29.88 29.89 29.90 29.92 29.94 29.96 29.97 29.96
VIS10 10 10 10 10 10 10 10 10 10 10 10 10
CIG-- -- -- -- -- 110 110 110 140 130 110 90 --
CoverFEWFEWFEWSCTSCTBKNBKNBKNBKNBKNBKNBKNSCT
FltCatVFRVFRVFRVFRVFRVFRVFRVFRVFRVFRVFRVFRVFR
WX--------------------------
WDir70606070330330320607080806080
WSpd9 9 6 6 5 5 7 13 13 13 10 14 16
WGst-- -- -- -- -- -- -- 22 -- -- -- -- 21
Raw hourly METARs
KPHX 151951Z 07009KT 10SM FEW070 FEW090 23/03 A2995 RMK AO2 SLP130 T02330033
KPHX 152051Z 06009KT 10SM FEW070 FEW090 24/04 A2993 RMK AO2 SLP121 T02440039 58021
KPHX 152151Z 06006KT 10SM FEW070 FEW090 25/04 A2991 RMK AO2 SLP115 T02500039
KPHX 152251Z 07006KT 10SM FEW070 SCT090 26/05 A2990 RMK AO2 SLP113 T02560050 $
KPHX 152351Z 33005KT 10SM FEW090 SCT110 25/04 A2989 RMK AO2 SLP109 T02500039 10256 20217 56012 $
KPHX 160051Z 33005KT 10SM SCT090 BKN110 24/04 A2988 RMK AO2 SLP106 VIRGO T02440039 $
KPHX 160151Z 32007KT 10SM SCT090 BKN110 24/02 A2989 RMK AO2 SLP107 VIRGO T02440022 $
KPHX 160251Z 06013G22KT 10SM BKN110 BKN150 23/04 A2990 RMK AO2 SLP114 T02280044 53004 $
KPHX 160351Z 07013KT 10SM FEW090 SCT110 BKN140 22/04 A2992 RMK AO2 SLP118 T02170039 $
KPHX 160451Z 08013KT 10SM FEW070 SCT090 BKN130 21/05 A2994 RMK AO2 SLP126 T02110050 $
KPHX 160551Z 08010KT 10SM SCT090 BKN110 BKN150 20/07 A2996 RMK AO2 SLP133 T02000067 10250 20200 53019 $
KPHX 160651Z 06014KT 10SM FEW050 BKN090 BKN110 18/09 A2997 RMK AO2 SLP136 T01830089 402560178 $
KPHX 160751Z 08016G21KT 10SM FEW100 SCT160 SCT200 17/09 A2996 RMK AO2 PK WND 05026/0734 SLP133 T01670094 $



Page loaded:  08:55 UTC  |   01:55 AM Pacific  |   02:55 AM Mountain  |   03:55 AM Central  |   04:55 AM Eastern

 

ADVISORIES

FORECASTS

FORECASTS

OBSERVATIONS

USER TOOLS

ABOUT US